Time;durP1;ratioP1;P1;durP2;ratioP2;P2;SDS_P1;SDS_P2;PMS_P1;PMS_P2;Temp;Humidity;BMP_temperature;BMP_pressure;BME280_temperature;BME280_humidity;BME280_pressure;Samples;Min_cycle;Max_cycle;Signal;HPM_P1;HPM_P2
2022/10/02 00:01:55;;;;;;;15.77;5.00;;;14.10;86.90;;;;;;5021989;28;20478;-75
2022/10/02 00:04:29;;;;;;;11.47;4.30;;;14.10;86.90;;;;;;5022993;28;20479;-76
2022/10/02 00:07:05;;;;;;;18.07;5.30;;;14.10;87.00;;;;;;5023524;28;20494;-76
2022/10/02 00:09:40;;;;;;;16.73;5.07;;;14.10;86.90;;;;;;5027064;28;21334;-76
2022/10/02 00:12:11;;;;;;;15.20;4.67;;;14.00;86.90;;;;;;5023507;28;20463;-76
2022/10/02 00:14:42;;;;;;;11.73;4.67;;;14.00;86.90;;;;;;5028684;28;20944;-75
2022/10/02 00:17:17;;;;;;;16.23;4.47;;;14.00;87.00;;;;;;5024271;28;21019;-75
2022/10/02 00:19:45;;;;;;;14.17;5.17;;;13.90;87.00;;;;;;5021575;28;20460;-76
2022/10/02 00:22:41;;;;;;;14.60;4.97;;;13.90;86.90;;;;;;5023526;28;20523;-75
2022/10/02 00:25:19;;;;;;;12.03;5.50;;;13.90;86.90;;;;;;5026333;28;20883;-77
2022/10/02 00:28:10;;;;;;;16.07;5.90;;;13.90;87.00;;;;;;5026045;28;21054;-74
2022/10/02 00:30:53;;;;;;;15.87;5.13;;;13.90;87.10;;;;;;5025643;28;20548;-75
2022/10/02 00:33:31;;;;;;;9.37;4.80;;;13.90;87.10;;;;;;5025009;28;20911;-77
2022/10/02 00:36:09;;;;;;;20.50;5.50;;;13.90;87.30;;;;;;5024000;28;20590;-75
2022/10/02 00:38:47;;;;;;;20.70;6.27;;;13.90;87.30;;;;;;5024319;28;20864;-75
2022/10/02 00:41:52;;;;;;;14.27;5.50;;;14.00;87.40;;;;;;5025562;28;20529;-75
2022/10/02 00:44:41;;;;;;;12.50;5.23;;;14.00;87.40;;;;;;5023565;28;20976;-76
2022/10/02 00:47:19;;;;;;;12.30;5.83;;;14.00;87.40;;;;;;5029637;28;20485;-75
2022/10/02 00:50:08;;;;;;;18.10;5.00;;;14.00;87.50;;;;;;5022802;28;21390;-75
2022/10/02 00:52:49;;;;;;;18.33;5.50;;;14.10;87.50;;;;;;5026589;28;20470;-76
2022/10/02 00:55:35;;;;;;;19.27;5.77;;;14.10;87.50;;;;;;5024128;28;20460;-77
2022/10/02 00:58:16;;;;;;;13.20;5.80;;;14.10;87.60;;;;;;5023468;28;20601;-76
2022/10/02 01:00:55;;;;;;;12.17;4.80;;;14.10;87.60;;;;;;5024101;28;20534;-76
2022/10/02 01:03:27;;;;;;;12.40;4.90;;;14.10;87.60;;;;;;5019951;28;20462;-76
2022/10/02 01:05:55;;;;;;;15.13;6.30;;;14.20;87.50;;;;;;5022599;28;20467;-75
2022/10/02 01:08:23;;;;;;;11.00;4.97;;;14.20;87.60;;;;;;5025800;28;21054;-75
2022/10/02 01:10:52;;;;;;;19.13;5.00;;;14.20;87.60;;;;;;5023140;28;20538;-76
2022/10/02 01:13:20;;;;;;;11.80;4.87;;;14.20;87.50;;;;;;5040060;28;21064;-76
2022/10/02 01:15:53;;;;;;;20.40;5.50;;;14.20;87.50;;;;;;5024622;28;20456;-76
2022/10/02 01:18:21;;;;;;;15.97;5.17;;;14.20;87.50;;;;;;5020565;28;20551;-76
2022/10/02 01:20:52;;;;;;;18.37;7.20;;;14.20;87.50;;;;;;5024225;28;20468;-75
2022/10/02 01:23:28;;;;;;;14.63;4.47;;;14.20;87.50;;;;;;5022579;28;20484;-75
2022/10/02 01:25:58;;;;;;;15.63;5.03;;;14.20;87.50;;;;;;5024477;28;20474;-75
2022/10/02 01:28:27;;;;;;;17.30;4.90;;;14.20;87.50;;;;;;5023401;28;20526;-75
2022/10/02 01:31:01;;;;;;;11.60;4.33;;;14.20;87.50;;;;;;5027702;28;20474;-76
2022/10/02 01:33:29;;;;;;;15.83;5.73;;;14.20;87.50;;;;;;5024529;28;21234;-75
2022/10/02 01:35:57;;;;;;;14.10;5.03;;;14.20;87.50;;;;;;5022963;28;20467;-76
2022/10/02 01:38:26;;;;;;;19.17;6.27;;;14.30;87.50;;;;;;5023301;28;20984;-76
2022/10/02 01:40:54;;;;;;;18.43;7.03;;;14.30;87.50;;;;;;5021810;28;20907;-76
2022/10/02 01:43:28;;;;;;;17.67;4.70;;;14.30;87.50;;;;;;5023274;28;20464;-77
2022/10/02 01:46:21;;;;;;;14.97;5.13;;;14.30;87.50;;;;;;5022049;28;20467;-77
2022/10/02 01:49:03;;;;;;;14.67;5.50;;;14.30;87.50;;;;;;5023521;28;20506;-77
2022/10/02 01:51:46;;;;;;;17.43;5.87;;;14.30;87.50;;;;;;5025614;28;20944;-76
2022/10/02 01:54:21;;;;;;;19.20;5.80;;;14.30;87.40;;;;;;5025638;28;20494;-75
2022/10/02 01:56:57;;;;;;;15.47;5.50;;;14.30;87.50;;;;;;5022909;28;21032;-77
2022/10/02 01:59:38;;;;;;;16.60;5.03;;;14.30;87.40;;;;;;5025153;28;20457;-75
2022/10/02 02:02:16;;;;;;;13.90;4.50;;;14.30;87.40;;;;;;5023173;28;20475;-76
2022/10/02 02:04:53;;;;;;;19.17;4.27;;;14.30;87.50;;;;;;5024287;28;20502;-77
2022/10/02 02:07:29;;;;;;;14.33;3.83;;;14.30;87.50;;;;;;5020922;28;20483;-75
2022/10/02 02:10:04;;;;;;;14.40;5.20;;;14.30;87.50;;;;;;5027741;28;20531;-76
2022/10/02 02:12:40;;;;;;;15.10;4.40;;;14.30;87.50;;;;;;5025786;28;20889;-75
2022/10/02 02:15:16;;;;;;;11.33;4.10;;;14.30;87.50;;;;;;5022707;28;20484;-75
2022/10/02 02:17:50;;;;;;;11.67;4.53;;;14.30;87.60;;;;;;5024769;28;20508;-75
2022/10/02 02:20:28;;;;;;;14.20;4.80;;;14.30;87.60;;;;;;5024063;28;20494;-75
2022/10/02 02:23:00;;;;;;;15.23;4.30;;;14.30;87.60;;;;;;5023223;28;20565;-76
2022/10/02 02:25:32;;;;;;;16.40;4.63;;;14.30;87.70;;;;;;5023402;28;20464;-76
2022/10/02 02:28:04;;;;;;;14.50;3.97;;;14.30;87.60;;;;;;5025366;28;21038;-77
2022/10/02 02:30:36;;;;;;;10.73;3.80;;;14.30;87.60;;;;;;5024307;28;20470;-77
2022/10/02 02:33:07;;;;;;;9.80;3.43;;;14.30;87.60;;;;;;5025221;28;20460;-76
2022/10/02 02:35:38;;;;;;;7.60;3.57;;;14.30;87.50;;;;;;5023570;28;20519;-76
2022/10/02 02:38:11;;;;;;;14.30;4.30;;;14.30;87.50;;;;;;5021457;28;20477;-76
2022/10/02 02:40:43;;;;;;;10.50;3.43;;;14.30;87.50;;;;;;5024228;28;20559;-75
2022/10/02 02:43:15;;;;;;;12.50;3.63;;;14.30;87.50;;;;;;5024894;28;20491;-76
2022/10/02 02:45:49;;;;;;;10.80;3.00;;;14.30;87.50;;;;;;5026732;28;20486;-75
2022/10/02 02:48:21;;;;;;;13.10;4.00;;;14.30;87.50;;;;;;5031218;28;20459;-76
2022/10/02 02:50:53;;;;;;;12.67;3.10;;;14.30;87.50;;;;;;5020259;28;20464;-76
2022/10/02 02:53:25;;;;;;;11.93;3.67;;;14.30;87.50;;;;;;5025752;28;21070;-76
2022/10/02 02:55:56;;;;;;;15.10;3.40;;;14.30;87.50;;;;;;5029118;28;20506;-77
2022/10/02 02:58:28;;;;;;;8.30;3.90;;;14.30;87.50;;;;;;5029774;28;21199;-76
2022/10/02 03:00:58;;;;;;;13.10;3.93;;;14.30;87.60;;;;;;5028208;28;20533;-76
2022/10/02 03:03:27;;;;;;;10.33;3.50;;;14.30;87.60;;;;;;5027659;28;21154;-76
2022/10/02 03:06:03;;;;;;;12.53;2.90;;;14.30;87.60;;;;;;5042939;28;20455;-75
2022/10/02 03:08:35;;;;;;;8.70;2.80;;;14.30;87.60;;;;;;5024387;28;20970;-76
2022/10/02 03:11:10;;;;;;;9.20;3.03;;;14.30;87.50;;;;;;5027292;28;20528;-76
2022/10/02 03:13:50;;;;;;;12.03;3.97;;;14.40;87.40;;;;;;5025993;28;20878;-76
2022/10/02 03:16:39;;;;;;;10.00;3.00;;;14.30;87.50;;;;;;5027657;28;21027;-75
2022/10/02 03:19:21;;;;;;;11.30;3.43;;;14.30;87.40;;;;;;5034224;28;20476;-75
2022/10/02 03:21:59;;;;;;;12.90;2.83;;;14.30;87.40;;;;;;5025810;28;20460;-76
2022/10/02 03:24:32;;;;;;;17.43;3.80;;;14.30;87.50;;;;;;5023631;28;20494;-75
2022/10/02 03:27:05;;;;;;;11.70;2.90;;;14.30;87.50;;;;;;5027631;28;20511;-75
2022/10/02 03:29:38;;;;;;;12.43;3.40;;;14.30;87.50;;;;;;5025637;28;20797;-77
2022/10/02 03:32:09;;;;;;;8.60;2.80;;;14.30;87.50;;;;;;5028350;28;20462;-76
2022/10/02 03:34:38;;;;;;;11.40;3.30;;;14.30;87.50;;;;;;5030517;28;20491;-77
2022/10/02 03:37:06;;;;;;;17.70;3.00;;;14.30;87.40;;;;;;5028412;28;20563;-76
2022/10/02 03:39:34;;;;;;;14.30;3.43;;;14.30;87.50;;;;;;5026178;28;20491;-75
2022/10/02 03:42:03;;;;;;;16.13;3.20;;;14.30;87.40;;;;;;5023432;28;20456;-77
2022/10/02 03:44:31;;;;;;;11.70;4.00;;;14.30;87.40;;;;;;5026086;28;20478;-77
2022/10/02 03:46:59;;;;;;;13.43;3.57;;;14.30;87.30;;;;;;5027103;28;20488;-76
2022/10/02 03:49:28;;;;;;;17.57;3.80;;;14.30;87.40;;;;;;5027012;28;20595;-75
2022/10/02 03:51:56;;;;;;;15.67;3.00;;;14.30;87.40;;;;;;5026329;28;20511;-76
2022/10/02 03:54:24;;;;;;;20.23;3.50;;;14.40;87.30;;;;;;5025615;28;20463;-75
2022/10/02 03:56:55;;;;;;;14.40;3.30;;;14.40;87.30;;;;;;5027034;28;20484;-75
2022/10/02 03:59:44;;;;;;;12.53;2.67;;;14.40;87.20;;;;;;5023390;28;21267;-75
2022/10/02 04:02:20;;;;;;;12.60;3.33;;;14.40;87.30;;;;;;5024142;28;20825;-75
2022/10/02 04:04:54;;;;;;;10.17;2.80;;;14.40;87.20;;;;;;5025030;28;20503;-76
2022/10/02 04:07:27;;;;;;;12.37;2.90;;;14.40;87.30;;;;;;5016453;28;20567;-75
2022/10/02 04:10:14;;;;;;;15.53;3.57;;;14.40;87.20;;;;;;5027139;28;20459;-75
2022/10/02 04:12:48;;;;;;;12.47;2.90;;;14.40;87.10;;;;;;5024612;28;20602;-75
2022/10/02 04:15:21;;;;;;;10.00;2.70;;;14.30;87.10;;;;;;5025917;28;21134;-76
2022/10/02 04:17:53;;;;;;;11.37;2.40;;;14.40;87.10;;;;;;5025053;28;20487;-75
2022/10/02 04:20:35;;;;;;;11.63;2.80;;;14.40;87.00;;;;;;5026502;28;20558;-75
2022/10/02 04:23:11;;;;;;;10.10;3.00;;;14.40;86.90;;;;;;5034668;28;20504;-76
2022/10/02 04:25:46;;;;;;;13.27;3.30;;;14.30;86.90;;;;;;5027143;28;20505;-75
2022/10/02 04:28:18;;;;;;;12.20;2.83;;;14.30;86.90;;;;;;5026914;28;20947;-76
2022/10/02 04:30:46;;;;;;;9.53;3.13;;;14.30;86.90;;;;;;5026170;28;20468;-76
2022/10/02 04:33:17;;;;;;;11.70;2.90;;;14.30;86.90;;;;;;5018479;28;20456;-75
2022/10/02 04:35:55;;;;;;;12.57;3.10;;;14.30;86.90;;;;;;5027267;28;20493;-76
2022/10/02 04:38:36;;;;;;;13.40;3.17;;;14.30;86.90;;;;;;5026775;28;21049;-76
2022/10/02 04:41:16;;;;;;;12.80;3.70;;;14.30;86.90;;;;;;5028597;28;20454;-76
2022/10/02 04:43:55;;;;;;;13.30;3.00;;;14.30;86.90;;;;;;5023987;28;20507;-77
2022/10/02 04:46:57;;;;;;;14.07;2.80;;;14.30;86.90;;;;;;5016440;28;20479;-75
2022/10/02 04:49:40;;;;;;;9.37;3.60;;;14.30;86.90;;;;;;5025632;28;20555;-77
2022/10/02 04:52:27;;;;;;;12.20;3.17;;;14.30;87.00;;;;;;5039656;28;20794;-76
2022/10/02 04:55:17;;;;;;;9.70;3.13;;;14.30;87.00;;;;;;5025301;28;20471;-75
2022/10/02 04:57:59;;;;;;;14.50;3.70;;;14.30;87.00;;;;;;5023681;28;21326;-76
2022/10/02 05:00:35;;;;;;;12.20;3.93;;;14.30;87.00;;;;;;5027547;28;20514;-76
2022/10/02 05:03:20;;;;;;;15.67;3.70;;;14.30;87.10;;;;;;5024476;28;20459;-77
2022/10/02 05:06:11;;;;;;;8.30;3.70;;;14.30;87.00;;;;;;5026003;28;20457;-77
2022/10/02 05:08:53;;;;;;;13.13;3.83;;;14.30;87.00;;;;;;5018451;28;20490;-77
2022/10/02 05:11:46;;;;;;;12.00;3.70;;;14.30;87.00;;;;;;5023799;28;20463;-77
2022/10/02 05:14:40;;;;;;;10.13;3.77;;;14.30;87.00;;;;;;5026470;28;20474;-75
2022/10/02 05:17:26;;;;;;;12.40;3.60;;;14.30;87.00;;;;;;5025351;28;20498;-76
2022/10/02 05:20:05;;;;;;;11.13;4.43;;;14.30;86.90;;;;;;5022845;28;20488;-76
2022/10/02 05:22:48;;;;;;;14.10;4.27;;;14.30;87.00;;;;;;5028576;28;20463;-76
2022/10/02 05:25:43;;;;;;;10.97;3.73;;;14.30;87.00;;;;;;5025860;28;20981;-77
2022/10/02 05:28:32;;;;;;;12.90;4.77;;;14.30;87.10;;;;;;5022866;28;21066;-76
2022/10/02 05:31:08;;;;;;;13.20;4.13;;;14.30;87.20;;;;;;5026607;28;20554;-76
2022/10/02 05:33:56;;;;;;;14.17;3.57;;;14.30;87.20;;;;;;5018704;28;20498;-76
2022/10/02 05:36:44;;;;;;;14.70;4.10;;;14.30;87.20;;;;;;5021514;28;20526;-77
2022/10/02 05:39:17;;;;;;;10.80;3.80;;;14.30;87.20;;;;;;5022154;28;21110;-77
2022/10/02 05:41:52;;;;;;;10.73;3.97;;;14.40;87.10;;;;;;5024108;28;20831;-77
2022/10/02 05:44:24;;;;;;;14.53;4.30;;;14.40;87.10;;;;;;5024732;28;20495;-76
2022/10/02 05:47:00;;;;;;;14.37;3.70;;;14.40;87.10;;;;;;5025092;28;20488;-76
2022/10/02 05:49:34;;;;;;;10.97;3.33;;;14.40;87.20;;;;;;5025455;28;20447;-74
2022/10/02 05:52:06;;;;;;;11.83;4.60;;;14.40;87.20;;;;;;5020502;28;20554;-77
2022/10/02 05:54:42;;;;;;;10.17;4.43;;;14.40;87.20;;;;;;5021231;28;20467;-75
2022/10/02 05:57:21;;;;;;;14.83;3.70;;;14.40;87.20;;;;;;5023494;28;20475;-76
2022/10/02 06:00:00;;;;;;;14.73;3.67;;;14.40;87.20;;;;;;5025497;28;20485;-75
2022/10/02 06:02:37;;;;;;;12.20;4.10;;;14.40;87.20;;;;;;5025171;28;21054;-75
2022/10/02 06:05:14;;;;;;;18.47;4.00;;;14.40;87.10;;;;;;5024353;28;20475;-76
2022/10/02 06:07:47;;;;;;;11.43;3.87;;;14.40;87.30;;;;;;5022510;28;20479;-75
2022/10/02 06:10:19;;;;;;;12.47;3.90;;;14.50;87.20;;;;;;5026166;28;21368;-75
2022/10/02 06:12:54;;;;;;;14.13;3.60;;;14.50;87.10;;;;;;5022731;28;20496;-76
2022/10/02 06:15:26;;;;;;;8.53;3.87;;;14.50;87.10;;;;;;5024813;28;20451;-76
2022/10/02 06:17:58;;;;;;;11.03;3.87;;;14.50;87.00;;;;;;5030486;28;20523;-76
2022/10/02 06:20:32;;;;;;;12.27;4.10;;;14.50;87.00;;;;;;5030270;28;20542;-76
2022/10/02 06:23:04;;;;;;;15.00;4.50;;;14.50;87.00;;;;;;5031953;28;20462;-76
2022/10/02 06:25:36;;;;;;;10.83;4.30;;;14.50;87.00;;;;;;5023677;28;20467;-76
2022/10/02 06:28:13;;;;;;;13.83;4.60;;;14.50;87.00;;;;;;5032415;28;20475;-76
2022/10/02 06:30:46;;;;;;;8.63;2.90;;;14.50;87.00;;;;;;5030830;28;20471;-76
2022/10/02 06:33:19;;;;;;;14.50;3.80;;;14.50;87.10;;;;;;5029354;28;20456;-76
2022/10/02 06:36:25;;;;;;;7.43;3.03;;;14.50;87.10;;;;;;5029711;28;20463;-76
2022/10/02 06:39:17;;;;;;;8.90;3.43;;;14.50;87.10;;;;;;4995718;28;20510;-76
2022/10/02 06:41:53;;;;;;;12.80;3.70;;;14.50;87.20;;;;;;5034542;28;20459;-77
2022/10/02 06:44:29;;;;;;;9.90;3.00;;;14.40;87.20;;;;;;5030885;28;20466;-75
2022/10/02 06:47:17;;;;;;;9.40;3.40;;;14.40;87.30;;;;;;5029626;28;20485;-76
2022/10/02 06:50:02;;;;;;;12.77;3.80;;;14.40;87.40;;;;;;5023678;28;20460;-76
2022/10/02 06:52:42;;;;;;;10.23;3.80;;;14.40;87.50;;;;;;5029346;28;20466;-75
2022/10/02 06:55:32;;;;;;;7.73;2.80;;;14.40;87.40;;;;;;5029411;28;20486;-75
2022/10/02 06:58:12;;;;;;;7.07;2.77;;;14.40;87.60;;;;;;5025869;28;20988;-77
2022/10/02 07:00:47;;;;;;;10.43;3.00;;;14.40;87.50;;;;;;5021695;28;20476;-75
2022/10/02 07:03:35;;;;;;;7.43;3.10;;;14.40;87.50;;;;;;5027718;28;20451;-75
2022/10/02 07:06:22;;;;;;;7.87;2.83;;;14.40;87.50;;;;;;5031171;28;20467;-77
2022/10/02 07:09:20;;;;;;;9.93;2.93;;;14.40;87.60;;;;;;5028313;28;21149;-77
2022/10/02 07:11:54;;;;;;;6.97;2.57;;;14.50;87.50;;;;;;5029796;28;20463;-77
2022/10/02 07:14:39;;;;;;;10.50;2.83;;;14.40;87.60;;;;;;5029061;28;20459;-75
2022/10/02 07:17:23;;;;;;;6.37;2.50;;;14.40;87.70;;;;;;5032428;28;21012;-77
2022/10/02 07:20:20;;;;;;;7.30;3.00;;;14.40;87.60;;;;;;5026972;28;20488;-76
2022/10/02 07:22:59;;;;;;;12.27;3.33;;;14.40;87.70;;;;;;5025097;28;20462;-75
2022/10/02 07:25:42;;;;;;;13.67;2.97;;;14.40;87.80;;;;;;5030882;28;20521;-76
2022/10/02 07:28:15;;;;;;;8.43;2.60;;;14.40;87.80;;;;;;5030442;28;20838;-76
2022/10/02 07:30:52;;;;;;;7.70;2.20;;;14.40;87.90;;;;;;5026014;28;20502;-76
2022/10/02 07:33:35;;;;;;;7.97;2.93;;;14.40;87.90;;;;;;5022600;28;20468;-75
2022/10/02 07:36:09;;;;;;;12.17;2.73;;;14.40;87.90;;;;;;5026317;28;21131;-77
2022/10/02 07:38:59;;;;;;;6.63;2.50;;;14.50;87.90;;;;;;5025909;28;20456;-75
2022/10/02 07:41:50;;;;;;;14.27;2.97;;;14.50;87.90;;;;;;5028115;28;20968;-77
2022/10/02 07:44:30;;;;;;;9.10;2.63;;;14.50;87.80;;;;;;5017705;28;20525;-76
2022/10/02 07:47:08;;;;;;;7.27;2.50;;;14.50;87.90;;;;;;5026448;28;20583;-77
2022/10/02 07:49:51;;;;;;;7.80;2.73;;;14.50;87.90;;;;;;5026809;28;20456;-77
2022/10/02 07:52:29;;;;;;;8.93;3.17;;;14.60;87.90;;;;;;5025863;28;20506;-75
2022/10/02 07:55:07;;;;;;;7.10;2.80;;;14.60;87.90;;;;;;5023336;28;20464;-76
2022/10/02 07:57:42;;;;;;;9.17;2.80;;;14.60;87.90;;;;;;5037159;28;20575;-77
2022/10/02 08:00:14;;;;;;;9.57;2.67;;;14.60;87.90;;;;;;5028561;28;20529;-76
2022/10/02 08:02:56;;;;;;;8.50;2.60;;;14.60;87.80;;;;;;5032054;28;20460;-77
2022/10/02 08:05:29;;;;;;;10.90;2.70;;;14.60;87.80;;;;;;5023708;28;20513;-77
2022/10/02 08:08:02;;;;;;;6.03;2.43;;;14.60;87.80;;;;;;5042155;28;20484;-76
2022/10/02 08:10:36;;;;;;;8.93;2.90;;;14.60;87.80;;;;;;5026289;28;20543;-77
2022/10/02 08:13:13;;;;;;;7.70;2.97;;;14.50;87.90;;;;;;5029350;28;20463;-77
2022/10/02 08:15:44;;;;;;;6.80;2.70;;;14.50;88.00;;;;;;5024447;28;20452;-76
2022/10/02 08:18:23;;;;;;;5.77;2.63;;;14.60;87.90;;;;;;5026195;28;20462;-77
2022/10/02 08:21:13;;;;;;;7.23;2.33;;;14.60;88.00;;;;;;5028292;28;20482;-77
2022/10/02 08:23:46;;;;;;;7.13;2.27;;;14.60;88.00;;;;;;5024761;28;20549;-75
2022/10/02 08:26:18;;;;;;;5.53;2.53;;;14.60;88.00;;;;;;5027049;28;20898;-76
2022/10/02 08:28:52;;;;;;;7.03;2.67;;;14.60;88.00;;;;;;5023352;28;20476;-75
2022/10/02 08:31:23;;;;;;;9.70;3.27;;;14.60;88.00;;;;;;5024574;28;20509;-76
2022/10/02 08:33:51;;;;;;;6.70;2.97;;;14.50;88.10;;;;;;5022906;28;20471;-76
2022/10/02 08:36:51;;;;;;;6.80;2.63;;;14.60;88.10;;;;;;5024834;28;20554;-76
2022/10/02 08:39:57;;;;;;;10.00;3.63;;;14.50;88.10;;;;;;5019111;28;20465;-76
2022/10/02 08:43:07;;;;;;;7.90;2.40;;;14.60;88.20;;;;;;5022180;28;20501;-75
2022/10/02 08:46:18;;;;;;;6.70;2.33;;;14.60;88.20;;;;;;5022593;28;20539;-76
2022/10/02 08:49:15;;;;;;;6.67;2.30;;;14.60;88.20;;;;;;5014832;28;21159;-76
2022/10/02 08:52:34;;;;;;;8.40;2.43;;;14.60;88.20;;;;;;4990910;28;21031;-77
2022/10/02 08:55:41;;;;;;;11.20;2.70;;;14.60;88.20;;;;;;5024053;28;20464;-76
2022/10/02 08:58:48;;;;;;;7.77;2.67;;;14.60;88.20;;;;;;5027492;28;20492;-77
2022/10/02 09:01:37;;;;;;;8.60;2.17;;;14.60;88.20;;;;;;5021205;28;20575;-76
2022/10/02 09:04:46;;;;;;;6.37;2.70;;;14.60;88.20;;;;;;5041636;28;20456;-77
2022/10/02 09:07:45;;;;;;;8.60;2.23;;;14.60;88.30;;;;;;5024329;28;20484;-77
2022/10/02 09:11:02;;;;;;;5.53;2.03;;;14.60;88.20;;;;;;5024646;28;20505;-75
2022/10/02 09:13:57;;;;;;;5.30;2.17;;;14.60;88.20;;;;;;4967346;28;20457;-76
2022/10/02 09:16:34;;;;;;;4.60;2.10;;;14.60;88.20;;;;;;4979866;28;20501;-77
2022/10/02 09:19:12;;;;;;;3.87;1.70;;;14.60;88.20;;;;;;5012701;28;20478;-76
2022/10/02 09:21:55;;;;;;;9.00;2.00;;;14.60;88.30;;;;;;5022674;28;20483;-76
2022/10/02 09:24:58;;;;;;;4.70;1.93;;;14.60;88.30;;;;;;5024407;28;20466;-76
2022/10/02 09:27:53;;;;;;;7.20;2.73;;;14.70;88.30;;;;;;5023545;28;20479;-76
2022/10/02 09:30:42;;;;;;;4.80;1.57;;;14.60;88.40;;;;;;5025472;28;20698;-75
2022/10/02 09:33:38;;;;;;;5.20;1.90;;;14.70;88.50;;;;;;5021363;28;20968;-76
2022/10/02 09:36:34;;;;;;;5.47;1.70;;;14.70;88.40;;;;;;5029664;28;20545;-75
2022/10/02 09:39:28;;;;;;;4.80;1.43;;;14.70;88.40;;;;;;5020308;28;20946;-76
2022/10/02 09:42:29;;;;;;;4.67;1.53;;;14.80;88.40;;;;;;5026336;28;20510;-76
2022/10/02 09:45:39;;;;;;;5.17;2.00;;;14.70;88.40;;;;;;5022810;28;21037;-77
2022/10/02 09:48:44;;;;;;;7.53;1.80;;;14.70;88.30;;;;;;5025026;28;20845;-76
2022/10/02 09:51:53;;;;;;;4.23;1.70;;;14.70;88.40;;;;;;5024783;28;20555;-75
2022/10/02 09:55:10;;;;;;;4.40;1.77;;;14.70;88.40;;;;;;5026236;28;20813;-75
2022/10/02 09:58:28;;;;;;;4.80;2.03;;;14.70;88.50;;;;;;5019526;28;20959;-76
2022/10/02 10:01:29;;;;;;;6.30;1.70;;;14.80;88.40;;;;;;5023656;28;20536;-75
2022/10/02 10:04:25;;;;;;;5.40;1.60;;;14.70;88.40;;;;;;4994104;28;20470;-75
2022/10/02 10:07:43;;;;;;;4.80;1.27;;;14.80;88.40;;;;;;5019850;28;20494;-75
2022/10/02 10:10:41;;;;;;;5.93;1.67;;;14.80;88.40;;;;;;5018522;28;20460;-75
2022/10/02 10:13:37;;;;;;;3.57;1.50;;;14.80;88.40;;;;;;5025345;28;20523;-76
2022/10/02 10:16:46;;;;;;;6.23;1.70;;;14.80;88.40;;;;;;5036338;28;20529;-75
2022/10/02 10:20:02;;;;;;;4.23;1.47;;;14.80;88.40;;;;;;5024919;28;20453;-76
2022/10/02 10:23:05;;;;;;;6.87;1.93;;;14.80;88.50;;;;;;5010375;28;20526;-76
2022/10/02 10:25:50;;;;;;;3.73;1.07;;;14.80;88.50;;;;;;5024301;28;20880;-76
2022/10/02 10:28:54;;;;;;;5.43;1.57;;;14.80;88.60;;;;;;5024048;28;20461;-75
2022/10/02 10:31:57;;;;;;;3.60;1.53;;;14.80;88.50;;;;;;5022702;28;20502;-76
2022/10/02 10:34:49;;;;;;;5.23;1.60;;;14.80;88.50;;;;;;5022297;28;20517;-75
2022/10/02 10:40:37;;;;;;;5.73;1.20;;;14.80;88.60;;;;;;5024803;28;20500;-75
2022/10/02 10:43:31;;;;;;;4.57;1.47;;;14.80;88.60;;;;;;5023201;28;20481;-75
2022/10/02 10:46:27;;;;;;;6.50;1.40;;;14.80;88.60;;;;;;5024217;28;20886;-76
2022/10/02 10:49:13;;;;;;;3.70;1.30;;;14.80;88.60;;;;;;5020706;28;20463;-75
2022/10/02 10:51:48;;;;;;;7.40;1.57;;;14.80;88.60;;;;;;5024547;28;20505;-76
2022/10/02 10:54:47;;;;;;;4.60;1.30;;;14.80;88.60;;;;;;5021950;28;20520;-75
2022/10/02 10:57:32;;;;;;;4.13;1.23;;;14.80;88.70;;;;;;5023284;28;20476;-75
2022/10/02 11:00:19;;;;;;;3.60;1.33;;;14.80;88.80;;;;;;5022984;28;20463;-74
2022/10/02 11:03:28;;;;;;;3.47;1.17;;;14.80;88.70;;;;;;5020946;28;20564;-75
2022/10/02 11:06:41;;;;;;;5.20;1.30;;;14.80;88.80;;;;;;5025023;28;20469;-75
2022/10/02 11:09:49;;;;;;;5.70;1.30;;;14.80;88.80;;;;;;5026730;28;20459;-76
2022/10/02 11:12:37;;;;;;;3.80;1.40;;;14.80;88.70;;;;;;5027829;28;20448;-76
2022/10/02 11:15:28;;;;;;;3.93;1.40;;;14.80;88.80;;;;;;5025578;28;20456;-75
2022/10/02 11:18:22;;;;;;;4.10;1.10;;;14.80;88.80;;;;;;4990040;28;20571;-76
2022/10/02 11:21:21;;;;;;;3.60;1.10;;;14.80;88.80;;;;;;5027689;28;20452;-76
2022/10/02 11:24:12;;;;;;;6.90;1.10;;;14.80;88.80;;;;;;5020965;28;20454;-75
2022/10/02 11:26:59;;;;;;;3.37;1.07;;;14.90;88.80;;;;;;5024094;28;20480;-77
2022/10/02 11:29:53;;;;;;;2.90;0.80;;;14.90;88.80;;;;;;5026500;28;21200;-74
2022/10/02 11:32:53;;;;;;;2.80;0.63;;;14.90;88.80;;;;;;5025904;28;20448;-75
2022/10/02 11:35:24;;;;;;;3.37;0.87;;;14.90;88.80;;;;;;5028312;28;20455;-76
2022/10/02 11:38:22;;;;;;;4.53;0.90;;;14.90;88.80;;;;;;5028525;28;20483;-75
2022/10/02 11:41:19;;;;;;;3.73;0.80;;;14.90;88.80;;;;;;4999019;28;20483;-76
2022/10/02 11:44:11;;;;;;;5.33;1.07;;;14.90;88.80;;;;;;5026694;28;20488;-75
2022/10/02 11:47:03;;;;;;;3.50;1.30;;;14.90;88.80;;;;;;5024503;28;20557;-75
2022/10/02 11:49:58;;;;;;;2.97;0.77;;;14.90;88.80;;;;;;5027708;28;20455;-76
2022/10/02 11:53:11;;;;;;;3.53;1.00;;;14.90;88.80;;;;;;5023131;28;20468;-76
2022/10/02 11:55:53;;;;;;;3.80;0.90;;;15.00;88.80;;;;;;4970202;28;20981;-76
2022/10/02 11:58:39;;;;;;;4.60;0.73;;;14.90;88.80;;;;;;5018831;28;20468;-75
2022/10/02 12:01:21;;;;;;;2.67;0.60;;;14.90;88.80;;;;;;5008083;28;21032;-75
2022/10/02 12:04:00;;;;;;;3.10;0.70;;;14.90;88.80;;;;;;5024850;28;20872;-75
2022/10/02 12:06:43;;;;;;;3.30;1.07;;;14.90;88.80;;;;;;5031678;28;20503;-75
2022/10/02 12:09:18;;;;;;;3.53;0.90;;;14.90;88.90;;;;;;5023014;28;20733;-76
2022/10/02 12:11:55;;;;;;;6.87;1.10;;;14.90;88.90;;;;;;5024091;28;20448;-76
2022/10/02 12:14:35;;;;;;;3.20;0.93;;;14.90;88.90;;;;;;5026574;28;20464;-76
2022/10/02 12:17:23;;;;;;;3.17;0.90;;;14.90;88.90;;;;;;5022453;28;20496;-76
2022/10/02 12:28:54;;;;;;;4.03;1.00;;;14.90;89.00;;;;;;5025935;28;20490;-77
2022/10/02 12:31:32;;;;;;;3.83;0.80;;;15.00;89.00;;;;;;5026178;28;20447;-75
2022/10/02 12:34:12;;;;;;;2.83;0.70;;;15.00;89.00;;;;;;5021304;28;20460;-76
2022/10/02 12:36:55;;;;;;;2.90;0.67;;;15.00;88.90;;;;;;5028276;28;21077;-77
2022/10/02 12:39:41;;;;;;;3.00;0.83;;;15.00;89.10;;;;;;5024080;28;20563;-78
2022/10/02 12:42:47;;;;;;;3.93;1.23;;;15.00;89.10;;;;;;5022903;28;20472;-77
2022/10/02 12:45:57;;;;;;;3.10;0.90;;;15.00;89.10;;;;;;5006125;28;20451;-78
2022/10/02 12:48:43;;;;;;;3.23;0.87;;;15.10;89.10;;;;;;4983806;28;20576;-77
2022/10/02 12:51:35;;;;;;;2.80;0.70;;;15.10;89.00;;;;;;5025912;28;20518;-77
2022/10/02 12:54:32;;;;;;;3.40;0.70;;;15.10;89.00;;;;;;5023158;28;20467;-78
2022/10/02 13:00:13;;;;;;;3.00;0.67;;;15.10;88.90;;;;;;5024625;28;20460;-77
2022/10/02 13:03:26;;;;;;;2.73;0.60;;;15.10;89.00;;;;;;5023920;28;20536;-76
2022/10/02 13:06:30;;;;;;;4.30;0.70;;;15.20;89.00;;;;;;5023314;28;20506;-79
2022/10/02 13:09:26;;;;;;;4.60;0.60;;;15.20;89.00;;;;;;4986635;28;20992;-79
2022/10/02 13:12:22;;;;;;;4.47;0.80;;;15.20;89.00;;;;;;5025280;28;20448;-78
2022/10/02 13:15:20;;;;;;;3.03;0.70;;;15.20;89.10;;;;;;5017223;28;20992;-78
2022/10/02 13:17:57;;;;;;;2.97;0.80;;;15.30;88.90;;;;;;5023547;28;20886;-78
2022/10/02 13:20:37;;;;;;;3.20;0.83;;;15.30;88.90;;;;;;5026435;28;20466;-78
2022/10/02 13:23:18;;;;;;;3.27;0.60;;;15.20;89.00;;;;;;5023988;28;20519;-78
2022/10/02 13:26:08;;;;;;;4.20;0.63;;;15.30;88.90;;;;;;5023650;28;20471;-77
2022/10/02 13:28:49;;;;;;;3.73;0.80;;;15.30;88.90;;;;;;5027749;28;20506;-78
2022/10/02 13:31:26;;;;;;;2.87;0.60;;;15.30;88.90;;;;;;5024137;28;20463;-78
2022/10/02 13:34:19;;;;;;;2.70;0.53;;;15.30;88.90;;;;;;5022990;28;20533;-79
2022/10/02 13:37:00;;;;;;;3.00;0.60;;;15.30;89.00;;;;;;5024763;28;20480;-79
2022/10/02 13:39:51;;;;;;;2.93;0.90;;;15.30;89.00;;;;;;5024620;28;20465;-78
2022/10/02 13:42:35;;;;;;;5.70;0.90;;;15.30;88.90;;;;;;5023432;28;20474;-79
2022/10/02 13:45:14;;;;;;;2.90;0.77;;;15.30;88.90;;;;;;5025200;28;20467;-78
2022/10/02 13:47:55;;;;;;;3.10;0.90;;;15.30;89.00;;;;;;5025150;28;20487;-77
2022/10/02 13:50:36;;;;;;;3.00;0.90;;;15.40;88.90;;;;;;5020860;28;20452;-78
2022/10/02 13:53:26;;;;;;;3.80;0.60;;;15.40;88.90;;;;;;5024798;28;20518;-79
2022/10/02 13:56:05;;;;;;;3.00;0.70;;;15.40;88.80;;;;;;5013588;28;20472;-77
2022/10/02 13:58:52;;;;;;;3.00;0.60;;;15.40;88.80;;;;;;5024630;28;20984;-77
2022/10/02 14:01:34;;;;;;;2.60;0.50;;;15.40;88.80;;;;;;5024495;28;20479;-78
2022/10/02 14:04:27;;;;;;;3.20;0.80;;;15.40;88.70;;;;;;5023302;28;20475;-78
2022/10/02 14:07:06;;;;;;;3.70;1.07;;;15.40;88.70;;;;;;5024475;28;21324;-77
2022/10/02 14:09:48;;;;;;;2.97;0.67;;;15.40;88.70;;;;;;5020818;28;20517;-79
2022/10/02 14:12:27;;;;;;;2.80;0.70;;;15.40;88.70;;;;;;5022232;28;20463;-78
2022/10/02 14:15:11;;;;;;;3.03;1.00;;;15.40;88.60;;;;;;5019079;28;20452;-79
2022/10/02 14:17:51;;;;;;;2.77;0.70;;;15.40;88.50;;;;;;5022964;28;21099;-78
2022/10/02 14:20:34;;;;;;;3.23;0.77;;;15.40;88.50;;;;;;5014250;28;20462;-78